createdAt,value
2018-11-25T00:01:48.985Z,99800.45
2018-11-25T00:06:51.537Z,99816.52
2018-11-25T00:11:54.124Z,99802.29
2018-11-25T00:16:56.755Z,99801.34
2018-11-25T00:21:59.533Z,99812.20
2018-11-25T00:27:02.100Z,99802.38
2018-11-25T00:32:04.812Z,99810.95
2018-11-25T00:37:07.464Z,99804.98
2018-11-25T00:42:10.008Z,99804.62
2018-11-25T00:47:12.746Z,99809.11
2018-11-25T00:52:15.395Z,99799.23
2018-11-25T00:57:18.127Z,99795.56
2018-11-25T01:02:20.763Z,99795.66
2018-11-25T01:07:23.435Z,99803.73
2018-11-25T01:12:26.003Z,99801.04
2018-11-25T01:17:28.671Z,99793.58
2018-11-25T01:22:31.247Z,99794.92
2018-11-25T01:27:33.849Z,99790.89
2018-11-25T01:32:36.481Z,99782.58
2018-11-25T01:37:39.079Z,99774.11
2018-11-25T01:42:41.700Z,99770.95
2018-11-25T01:47:44.404Z,99774.87
2018-11-25T01:52:47.110Z,99765.45
2018-11-25T01:57:49.657Z,99765.94
2018-11-25T02:02:52.283Z,99764.95
2018-11-25T02:07:54.821Z,99755.66
2018-11-25T02:12:57.368Z,99756.61
2018-11-25T02:18:00.047Z,99755.75
2018-11-25T02:23:02.707Z,99754.91
2018-11-25T02:28:05.341Z,99758.45
2018-11-25T02:33:07.955Z,99756.86
2018-11-25T02:38:10.522Z,99746.59
2018-11-25T02:43:14.014Z,99742.68
2018-11-25T02:48:15.851Z,99737.75
2018-11-25T02:53:18.403Z,99732.02
2018-11-25T02:58:20.947Z,99734.46
2018-11-25T03:03:23.501Z,99734.46
2018-11-25T03:08:26.152Z,99736.88
2018-11-25T03:13:28.691Z,99723.42
2018-11-25T03:18:31.256Z,99728.45
2018-11-25T03:23:33.806Z,99725.75
2018-11-25T03:28:36.379Z,99725.52
2018-11-25T03:33:38.966Z,99727.36
2018-11-25T03:38:41.594Z,99720.36
2018-11-25T03:43:44.171Z,99721.70
2018-11-25T03:48:46.750Z,99719.01
2018-11-25T03:53:49.309Z,99712.78
2018-11-25T03:58:51.832Z,99713.75
2018-11-25T04:03:54.447Z,99711.92
2018-11-25T04:08:57.023Z,99714.73
2018-11-25T04:13:59.636Z,99711.28
2018-11-25T04:19:02.225Z,99709.08
2018-11-25T04:24:04.800Z,99714.23
2018-11-25T04:29:07.339Z,99719.12
2018-11-25T04:34:09.880Z,99712.61
2018-11-25T04:39:12.518Z,99714.94
2018-11-25T04:44:15.063Z,99713.59
2018-11-25T04:49:17.685Z,99709.19
2018-11-25T04:54:20.254Z,99706.75
2018-11-25T04:59:22.784Z,99704.52
2018-11-25T05:04:25.315Z,99706.27
2018-11-25T05:09:34.590Z,99695.11
2018-11-25T05:14:37.259Z,99693.40
2018-11-25T05:19:39.823Z,99703.30
2018-11-25T05:24:42.467Z,99696.21
2018-11-25T05:29:45.076Z,99695.84
2018-11-25T05:34:47.635Z,99703.91
2018-11-25T05:39:50.201Z,99691.94
2018-11-25T05:44:52.757Z,99685.22
2018-11-25T05:49:55.332Z,99680.41
2018-11-25T05:54:57.954Z,99678.22
2018-11-25T06:00:00.569Z,99678.70
2018-11-25T06:05:03.449Z,99674.31
2018-11-25T06:10:07.338Z,99677.36
2018-11-25T06:15:10.502Z,99681.89
2018-11-25T06:20:13.566Z,99689.95
2018-11-25T06:25:16.791Z,99687.39
2018-11-25T06:30:19.880Z,99692.28
2018-11-25T06:35:22.440Z,99699.49
2018-11-25T06:40:25.084Z,99709.48
2018-11-25T06:45:28.285Z,99709.85
2018-11-25T06:50:31.122Z,99712.17
2018-11-25T06:55:33.907Z,99708.76
2018-11-25T07:00:36.511Z,99716.83
2018-11-25T07:05:39.098Z,99729.54
2018-11-25T07:10:42.494Z,99726.36
2018-11-25T07:15:45.150Z,99727.22
2018-11-25T07:20:47.803Z,99722.42
2018-11-25T07:25:50.395Z,99727.92
2018-11-25T07:31:04.539Z,99734.64
2018-11-25T07:36:07.081Z,99728.78
2018-11-25T07:41:09.801Z,99720.71
2018-11-25T07:46:12.697Z,99722.42
2018-11-25T07:51:15.387Z,99721.84
2018-11-25T07:56:17.964Z,99732.47
2018-11-25T08:01:20.812Z,99721.22
2018-11-25T08:06:23.479Z,99724.37
2018-11-25T08:11:26.050Z,99728.58
2018-11-25T08:16:28.607Z,99722.90
2018-11-25T08:21:31.230Z,99718.95
2018-11-25T08:26:34.261Z,99711.09
2018-11-25T08:31:38.068Z,99714.44
2018-11-25T08:36:40.961Z,99716.61
2018-11-25T08:41:43.552Z,99710.52
2018-11-25T08:46:46.237Z,99707.61
2018-11-25T08:51:48.853Z,99707.24
2018-11-25T08:56:51.459Z,99708.65
2018-11-25T09:01:54.031Z,99714.08
2018-11-25T09:06:56.642Z,99712.73
2018-11-25T09:11:59.908Z,99709.34
2018-11-25T09:17:03.114Z,99721.81
2018-11-25T09:22:05.929Z,99722.73
2018-11-25T09:27:08.479Z,99725.02
2018-11-25T09:32:11.067Z,99727.16
2018-11-25T09:37:13.859Z,99721.97
2018-11-25T09:42:16.472Z,99723.07
2018-11-25T09:47:19.099Z,99727.53
2018-11-25T09:52:21.762Z,99722.98
2018-11-25T09:57:24.372Z,99715.89
2018-11-25T10:02:26.938Z,99717.81
2018-11-25T10:07:29.953Z,99712.44
2018-11-25T10:12:32.881Z,99700.34
2018-11-25T10:17:35.537Z,99687.66
2018-11-25T10:22:38.206Z,99690.71
2018-11-25T10:27:40.900Z,99683.75
2018-11-25T10:32:43.625Z,99684.61
2018-11-25T10:37:46.222Z,99690.34
2018-11-25T10:42:48.834Z,99695.36
2018-11-25T10:47:51.435Z,99688.87
2018-11-25T10:52:54.050Z,99678.15
2018-11-25T10:57:56.645Z,99677.34
2018-11-25T11:03:04.521Z,99669.89
2018-11-25T11:08:07.424Z,99671.37
2018-11-25T11:13:10.062Z,99675.51
2018-11-25T11:18:12.660Z,99664.55
2018-11-25T11:23:15.187Z,99664.30
2018-11-25T11:28:45.376Z,99658.70
2018-11-25T11:33:47.929Z,99658.08
2018-11-25T11:38:50.672Z,99652.88
2018-11-25T11:43:53.408Z,99651.53
2018-11-25T11:48:56.123Z,99644.81
2018-11-25T11:53:58.687Z,99642.13
2018-11-25T11:59:01.225Z,99639.03
2018-11-25T12:04:04.390Z,99633.73
2018-11-25T12:09:08.913Z,99632.31
2018-11-25T12:14:11.612Z,99628.51
2018-11-25T12:19:14.509Z,99625.45
2018-11-25T12:24:17.594Z,99619.71
2018-11-25T12:29:20.174Z,99620.44
2018-11-25T12:34:23.125Z,99615.06
2018-11-25T12:39:28.519Z,99607.84
2018-11-25T12:44:29.308Z,99608.69
2018-11-25T12:49:31.878Z,99608.81
2018-11-25T12:54:34.639Z,99602.56
2018-11-25T12:59:37.413Z,99604.64
2018-11-25T13:04:40.389Z,99603.92
2018-11-25T13:09:43.230Z,99595.99
2018-11-25T13:14:45.835Z,99587.80
2018-11-25T13:19:48.420Z,99575.69
2018-11-25T13:24:52.566Z,99578.61
2018-11-25T13:29:55.458Z,99582.16
2018-11-25T13:34:58.149Z,99580.72
2018-11-25T13:40:02.405Z,99593.31
2018-11-25T13:45:04.639Z,99587.93
2018-11-25T13:50:07.960Z,99587.93
2018-11-25T13:55:14.692Z,99578.02
2018-11-25T14:00:20.423Z,99572.64
2018-11-25T14:05:23.007Z,99572.64
2018-11-25T14:10:30.185Z,99568.70
2018-11-25T14:15:32.731Z,99571.80
2018-11-25T14:20:35.427Z,99572.88
2018-11-25T14:25:37.983Z,99577.63
2018-11-25T14:30:40.608Z,99577.05
2018-11-25T14:35:43.375Z,99576.69
2018-11-25T14:40:46.304Z,99573.60
2018-11-25T14:45:49.028Z,99567.77
2018-11-25T14:50:51.882Z,99562.38
2018-11-25T14:55:54.440Z,99565.44
2018-11-25T15:00:57.137Z,99561.89
2018-11-25T15:06:00.036Z,99572.03
2018-11-25T15:11:02.645Z,99571.31
2018-11-25T15:16:06.907Z,99573.73
2018-11-25T15:21:10.036Z,99576.19
2018-11-25T15:26:14.684Z,99578.62
2018-11-25T15:31:17.322Z,99574.84
2018-11-25T15:36:19.923Z,99581.56
2018-11-25T15:41:23.979Z,99584.26
2018-11-25T15:46:26.540Z,99586.45
2018-11-25T15:51:29.186Z,99581.44
2018-11-25T15:56:31.937Z,99577.04
2018-11-25T16:01:34.355Z,99571.30
2018-11-25T16:06:37.108Z,99569.09
2018-11-25T16:11:39.729Z,99572.64
2018-11-25T16:16:42.580Z,99560.63
2018-11-25T16:21:45.172Z,99562.38
2018-11-25T16:26:47.731Z,99565.52
2018-11-25T16:31:50.290Z,99571.05
2018-11-25T16:36:52.811Z,99564.67
2018-11-25T16:41:55.367Z,99564.30
2018-11-25T16:46:58.299Z,99567.75
2018-11-25T16:52:01.981Z,99572.75
2018-11-25T16:57:05.507Z,99572.25
2018-11-25T17:02:08.411Z,99576.20
2018-11-25T17:07:11.203Z,99574.89
2018-11-25T17:12:14.051Z,99574.50
2018-11-25T17:17:16.995Z,99576.37
2018-11-25T17:22:19.666Z,99579.18
2018-11-25T17:27:22.517Z,99581.38
2018-11-25T17:32:25.319Z,99583.09
2018-11-25T17:37:27.969Z,99589.11
2018-11-25T17:42:30.946Z,99597.31
2018-11-25T17:47:33.843Z,99601.38
2018-11-25T17:52:36.431Z,99599.05
2018-11-25T17:57:39.222Z,99602.95
2018-11-25T18:02:42.165Z,99608.81
2018-11-25T18:07:44.850Z,99609.96
2018-11-25T18:12:47.656Z,99609.91
2018-11-25T18:17:51.564Z,99612.86
2018-11-25T18:22:54.243Z,99616.08
2018-11-25T18:28:00.515Z,99612.55
2018-11-25T18:32:59.510Z,99616.18
2018-11-25T18:38:02.321Z,99623.29
2018-11-25T18:43:05.475Z,99623.89
2018-11-25T18:48:09.075Z,99617.25
2018-11-25T18:53:11.919Z,99616.95
2018-11-25T18:58:14.643Z,99621.83
2018-11-25T19:03:17.274Z,99611.15
2018-11-25T19:08:20.181Z,99615.69
2018-11-25T19:13:24.189Z,99614.03
2018-11-25T19:18:31.026Z,99612.22
2018-11-25T19:23:34.123Z,99617.90
2018-11-25T19:28:37.447Z,99614.94
2018-11-25T19:33:41.169Z,99611.52
2018-11-25T19:38:43.816Z,99616.86
2018-11-25T19:43:46.855Z,99614.94
2018-11-25T19:53:51.215Z,99630.08
2018-11-25T19:58:57.987Z,99624.97
2018-11-25T20:04:00.536Z,99619.23
2018-11-25T20:09:04.012Z,99619.09
2018-11-25T20:14:06.918Z,99622.78
2018-11-25T20:19:09.931Z,99624.00
2018-11-25T20:24:12.752Z,99621.45
2018-11-25T20:29:16.098Z,99615.44
2018-11-25T20:34:18.651Z,99621.09
2018-11-25T20:39:26.591Z,99625.63
2018-11-25T20:44:29.276Z,99615.10
2018-11-25T20:49:33.584Z,99613.77
2018-11-25T20:54:36.572Z,99612.78
2018-11-25T20:59:39.320Z,99606.67
2018-11-25T21:04:41.868Z,99613.91
2018-11-25T21:09:44.411Z,99615.13
2018-11-25T21:14:46.940Z,99606.69
2018-11-25T21:19:53.774Z,99605.08
2018-11-25T21:24:56.352Z,99610.10
2018-11-25T21:29:58.917Z,99607.05
2018-11-25T21:35:02.457Z,99608.17
2018-11-25T21:40:07.670Z,99607.91
2018-11-25T21:45:15.932Z,99602.52
2018-11-25T22:02:23.256Z,99605.09
2018-11-25T22:07:28.942Z,99604.37
2018-11-25T22:12:31.490Z,99611.95
2018-11-25T22:17:34.331Z,99615.50
2018-11-25T22:22:36.940Z,99606.56
2018-11-25T22:27:42.747Z,99605.09
2018-11-25T22:32:47.587Z,99598.75
2018-11-25T22:37:52.351Z,99603.75
2018-11-25T22:43:06.843Z,99600.83
2018-11-25T22:48:09.459Z,99596.52
2018-11-25T22:53:12.075Z,99598.13
2018-11-25T22:58:14.660Z,99599.22
2018-11-25T23:03:17.193Z,99595.89
2018-11-25T23:08:19.739Z,99604.37
2018-11-25T23:13:22.290Z,99596.03
2018-11-25T23:18:24.887Z,99596.25
2018-11-25T23:23:27.408Z,99601.41
2018-11-25T23:28:29.954Z,99592.45
2018-11-25T23:33:32.667Z,99588.81
2018-11-25T23:38:36.607Z,99598.72
2018-11-25T23:43:40.197Z,99592.09
2018-11-25T23:48:42.868Z,99590.52
2018-11-25T23:53:45.419Z,99579.75
2018-11-25T23:58:48.001Z,99579.16
